createdAt,value
2018-12-21T00:02:19.483Z,3.10
2018-12-21T00:04:47.001Z,3.10
2018-12-21T00:07:14.568Z,2.80
2018-12-21T00:09:42.073Z,3.00
2018-12-21T00:12:09.582Z,2.90
2018-12-21T00:14:37.075Z,3.10
2018-12-21T00:17:04.573Z,2.70
2018-12-21T00:19:32.087Z,2.60
2018-12-21T00:21:59.605Z,2.50
2018-12-21T00:24:27.093Z,2.30
2018-12-21T00:26:54.917Z,1.80
2018-12-21T00:29:22.412Z,2.00
2018-12-21T00:31:55.578Z,1.90
2018-12-21T00:34:28.831Z,1.70
2018-12-21T00:37:02.135Z,1.50
2018-12-21T00:39:35.416Z,1.40
2018-12-21T00:42:02.627Z,1.20
2018-12-21T00:44:32.079Z,1.20
2018-12-21T00:47:01.545Z,1.00
2018-12-21T00:49:29.043Z,1.00
2018-12-21T00:51:56.523Z,1.10
2018-12-21T00:54:24.027Z,1.20
2018-12-21T00:56:51.749Z,1.20
2018-12-21T00:59:19.264Z,1.10
2018-12-21T01:01:46.857Z,1.30
2018-12-21T01:04:14.359Z,1.10
2018-12-21T01:06:41.879Z,1.20
2018-12-21T01:09:09.467Z,1.10
2018-12-21T01:11:37.019Z,1.20
2018-12-21T01:14:04.584Z,1.00
2018-12-21T01:16:32.067Z,1.30
2018-12-21T01:18:59.551Z,1.40
2018-12-21T01:21:29.028Z,1.40
2018-12-21T01:23:56.587Z,1.50
2018-12-21T01:26:24.191Z,1.50
2018-12-21T01:28:51.799Z,1.70
2018-12-21T01:31:19.303Z,1.70
2018-12-21T01:38:41.815Z,2.00
2018-12-21T01:41:09.394Z,2.10
2018-12-21T01:43:36.888Z,2.30
2018-12-21T01:46:04.393Z,2.30
2018-12-21T01:48:31.896Z,2.10
2018-12-21T01:50:59.642Z,2.40
2018-12-21T01:53:27.168Z,2.80
2018-12-21T01:55:54.649Z,2.50
2018-12-21T01:58:22.148Z,2.60
2018-12-21T02:00:49.660Z,2.80
2018-12-21T02:03:17.186Z,2.80
2018-12-21T02:05:44.684Z,2.90
2018-12-21T02:08:12.180Z,2.90
2018-12-21T02:10:39.673Z,3.10
2018-12-21T02:13:07.180Z,3.20
2018-12-21T02:15:34.675Z,3.10
2018-12-21T02:18:02.166Z,3.10
2018-12-21T02:20:29.743Z,3.10
2018-12-21T02:22:57.275Z,3.10
2018-12-21T02:25:24.784Z,3.10
2018-12-21T02:27:52.313Z,3.10
2018-12-21T02:30:19.826Z,3.10
2018-12-21T02:32:47.343Z,3.20
2018-12-21T02:35:14.963Z,3.20
2018-12-21T02:37:42.459Z,3.10
2018-12-21T02:40:10.032Z,3.10
2018-12-21T02:42:37.568Z,3.10
2018-12-21T02:45:06.331Z,3.00
2018-12-21T02:47:33.821Z,2.90
2018-12-21T02:50:01.345Z,2.70
2018-12-21T02:52:29.082Z,2.70
2018-12-21T02:54:56.567Z,2.60
2018-12-21T02:57:24.090Z,2.70
2018-12-21T02:59:51.593Z,3.10
2018-12-21T03:02:19.095Z,2.50
2018-12-21T03:04:46.937Z,2.80
2018-12-21T03:07:14.425Z,2.60
2018-12-21T03:09:42.014Z,2.50
2018-12-21T03:12:09.534Z,2.50
2018-12-21T03:14:37.040Z,2.50
2018-12-21T03:17:04.530Z,2.50
2018-12-21T03:19:32.028Z,2.40
2018-12-21T03:21:59.937Z,2.40
2018-12-21T03:24:27.448Z,2.40
2018-12-21T03:26:55.510Z,2.40
2018-12-21T03:29:23.021Z,2.30
2018-12-21T03:31:51.090Z,2.30
2018-12-21T03:34:18.617Z,2.10
2018-12-21T03:36:46.420Z,2.20
2018-12-21T03:39:13.944Z,2.20
2018-12-21T03:41:41.463Z,2.10
2018-12-21T03:44:09.594Z,2.10
2018-12-21T03:46:37.094Z,2.00
2018-12-21T03:49:04.668Z,2.00
2018-12-21T03:51:32.181Z,2.20
2018-12-21T03:53:59.678Z,2.20
2018-12-21T03:56:27.176Z,2.20
2018-12-21T03:58:54.706Z,2.10
2018-12-21T04:01:22.200Z,2.10
2018-12-21T04:03:50.052Z,2.00
2018-12-21T04:06:17.895Z,1.90
2018-12-21T04:08:45.398Z,2.10
2018-12-21T04:11:12.912Z,2.00
2018-12-21T04:13:40.432Z,2.10
2018-12-21T04:16:08.023Z,2.00
2018-12-21T04:18:35.686Z,2.00
2018-12-21T04:21:03.187Z,2.10
2018-12-21T04:23:31.179Z,2.00
2018-12-21T04:25:58.773Z,1.70
2018-12-21T04:28:26.264Z,1.90
2018-12-21T04:30:53.755Z,1.70
2018-12-21T04:35:48.754Z,1.90
2018-12-21T04:38:16.260Z,1.90
2018-12-21T04:43:11.270Z,1.90
2018-12-21T04:45:38.961Z,1.90
2018-12-21T04:48:06.453Z,1.80
2018-12-21T04:50:33.948Z,1.40
2018-12-21T04:53:01.463Z,1.90
2018-12-21T04:55:28.969Z,1.70
2018-12-21T04:57:57.793Z,1.90
2018-12-21T05:00:25.293Z,1.80
2018-12-21T05:02:52.803Z,1.80
2018-12-21T05:07:41.629Z,1.90
2018-12-21T05:10:09.181Z,1.90
2018-12-21T05:12:36.682Z,1.80
2018-12-21T05:15:05.056Z,1.30
2018-12-21T05:20:00.073Z,1.90
2018-12-21T05:22:27.573Z,1.80
2018-12-21T05:24:55.079Z,2.00
2018-12-21T05:27:22.647Z,1.90
2018-12-21T05:29:50.153Z,1.80
2018-12-21T05:32:17.630Z,1.80
2018-12-21T05:34:45.139Z,1.80
2018-12-21T05:37:12.644Z,1.50
2018-12-21T05:39:40.265Z,2.00
2018-12-21T05:42:08.753Z,1.80
2018-12-21T05:44:36.253Z,1.80
2018-12-21T05:47:03.759Z,1.90
2018-12-21T05:49:31.270Z,1.90
2018-12-21T05:51:58.774Z,2.40
2018-12-21T05:54:27.009Z,2.40
2018-12-21T05:56:54.505Z,2.50
2018-12-21T05:59:21.984Z,2.50
2018-12-21T06:01:49.475Z,2.60
2018-12-21T06:04:16.968Z,2.60
2018-12-21T06:06:44.447Z,2.90
2018-12-21T06:09:11.939Z,2.80
2018-12-21T06:11:39.445Z,2.90
2018-12-21T06:14:06.951Z,2.90
2018-12-21T06:16:34.463Z,2.90
2018-12-21T06:19:01.948Z,2.90
2018-12-21T06:21:29.436Z,2.80
2018-12-21T06:23:56.941Z,3.00
2018-12-21T06:26:24.437Z,3.10
2018-12-21T06:28:51.973Z,3.10
2018-12-21T06:31:19.452Z,3.10
2018-12-21T06:33:46.946Z,2.90
2018-12-21T06:36:14.440Z,3.20
2018-12-21T06:38:41.941Z,2.90
2018-12-21T06:41:09.427Z,2.60
2018-12-21T06:43:36.932Z,2.80
2018-12-21T06:46:04.564Z,2.80
2018-12-21T06:48:32.050Z,2.90
2018-12-21T06:50:59.542Z,2.50
2018-12-21T06:53:27.034Z,2.80
2018-12-21T06:55:54.525Z,2.70
2018-12-21T06:58:22.012Z,2.70
2018-12-21T07:00:49.580Z,2.60
2018-12-21T07:03:17.494Z,2.60
2018-12-21T07:05:45.100Z,2.60
2018-12-21T07:08:12.595Z,2.40
2018-12-21T07:10:40.094Z,2.50
2018-12-21T07:13:07.584Z,2.40
2018-12-21T07:15:35.092Z,2.30
2018-12-21T07:18:02.649Z,2.20
2018-12-21T07:20:30.154Z,2.20
2018-12-21T07:22:57.638Z,2.10
2018-12-21T07:25:25.136Z,2.00
2018-12-21T07:27:52.846Z,2.10
2018-12-21T07:30:20.328Z,2.00
2018-12-21T07:32:47.812Z,1.90
2018-12-21T07:35:15.585Z,1.90
2018-12-21T07:37:43.102Z,1.90
2018-12-21T07:40:10.650Z,2.00
2018-12-21T07:42:38.198Z,1.90
2018-12-21T07:45:07.342Z,1.80
2018-12-21T07:47:34.829Z,2.10
2018-12-21T07:50:02.396Z,2.00
2018-12-21T07:52:29.881Z,2.00
2018-12-21T07:54:57.388Z,2.00
2018-12-21T07:57:24.869Z,2.20
2018-12-21T07:59:52.366Z,2.30
2018-12-21T08:02:19.868Z,2.30
2018-12-21T08:04:47.365Z,2.40
2018-12-21T08:07:14.876Z,2.80
2018-12-21T08:09:42.367Z,2.60
2018-12-21T08:12:09.849Z,2.70
2018-12-21T08:14:37.349Z,2.80
2018-12-21T08:17:04.905Z,2.70
2018-12-21T08:19:32.384Z,2.80
2018-12-21T08:21:59.875Z,2.70
2018-12-21T08:24:27.404Z,2.70
2018-12-21T08:26:54.900Z,2.80
2018-12-21T08:29:22.392Z,2.80
2018-12-21T08:31:49.880Z,3.00
2018-12-21T08:34:17.396Z,3.10
2018-12-21T08:36:44.872Z,3.00
2018-12-21T08:39:12.362Z,3.30
2018-12-21T08:41:39.870Z,3.40
2018-12-21T08:44:07.368Z,3.60
2018-12-21T08:46:34.866Z,3.70
2018-12-21T08:49:02.380Z,3.90
2018-12-21T08:51:29.868Z,3.80
2018-12-21T08:53:57.362Z,3.80
2018-12-21T08:56:24.856Z,3.90
2018-12-21T08:58:52.374Z,4.00
2018-12-21T09:01:19.864Z,4.10
2018-12-21T09:03:47.370Z,3.80
2018-12-21T09:06:18.604Z,4.10
2018-12-21T09:08:44.380Z,4.20
2018-12-21T09:11:11.884Z,4.40
2018-12-21T09:13:39.453Z,4.40
2018-12-21T09:16:06.964Z,4.70
2018-12-21T09:18:34.448Z,4.50
2018-12-21T09:21:01.952Z,4.60
2018-12-21T09:23:29.454Z,4.60
2018-12-21T09:25:56.944Z,4.70
2018-12-21T09:28:24.437Z,4.70
2018-12-21T09:30:51.916Z,4.90
2018-12-21T09:33:19.411Z,4.90
2018-12-21T09:35:46.932Z,4.90
2018-12-21T09:38:14.432Z,5.10
2018-12-21T09:40:41.952Z,5.30
2018-12-21T09:43:09.435Z,5.20
2018-12-21T09:45:37.024Z,5.60
2018-12-21T09:48:04.503Z,5.40
2018-12-21T09:50:32.000Z,5.40
2018-12-21T09:52:59.498Z,5.40
2018-12-21T09:55:26.998Z,5.60
2018-12-21T09:57:54.480Z,5.70
2018-12-21T10:00:21.972Z,5.50
2018-12-21T10:02:50.512Z,5.80
2018-12-21T10:05:18.004Z,5.80
2018-12-21T10:10:13.028Z,6.20
2018-12-21T10:12:40.510Z,6.00
2018-12-21T10:15:08.462Z,5.90
2018-12-21T10:17:35.980Z,5.90
2018-12-21T10:20:05.153Z,6.10
2018-12-21T10:22:32.643Z,6.40
2018-12-21T10:25:00.264Z,6.20
2018-12-21T10:27:27.760Z,5.90
2018-12-21T10:29:55.254Z,5.90
2018-12-21T10:32:22.746Z,5.90
2018-12-21T10:34:50.353Z,5.70
2018-12-21T10:37:17.976Z,7.20
2018-12-21T10:39:45.476Z,5.60
2018-12-21T10:42:12.963Z,5.70
2018-12-21T10:44:40.476Z,5.80
2018-12-21T10:47:07.978Z,5.90
2018-12-21T10:49:35.574Z,5.80
2018-12-21T10:52:03.180Z,5.80
2018-12-21T10:54:30.676Z,5.70
2018-12-21T10:56:58.162Z,5.40
2018-12-21T10:59:25.668Z,6.00
2018-12-21T11:01:53.148Z,5.50
2018-12-21T11:04:20.646Z,5.50
2018-12-21T11:06:48.134Z,5.40
2018-12-21T11:09:15.654Z,5.30
2018-12-21T11:11:43.153Z,5.40
2018-12-21T11:14:10.674Z,5.40
2018-12-21T11:16:38.160Z,5.20
2018-12-21T11:19:05.669Z,5.20
2018-12-21T11:21:33.168Z,4.70
2018-12-21T11:24:00.664Z,4.70
2018-12-21T11:26:28.199Z,4.50
2018-12-21T11:28:55.704Z,4.70
2018-12-21T11:31:23.259Z,4.80
2018-12-21T11:33:50.786Z,4.70
2018-12-21T11:36:18.299Z,4.60
2018-12-21T11:38:45.797Z,4.80
2018-12-21T11:41:13.325Z,4.70
2018-12-21T11:43:40.826Z,4.90
2018-12-21T11:46:08.338Z,4.80
2018-12-21T11:48:35.835Z,4.70
2018-12-21T11:51:03.426Z,4.80
2018-12-21T11:53:30.969Z,4.80
2018-12-21T11:55:58.485Z,4.80
2018-12-21T11:58:25.988Z,4.80
2018-12-21T12:00:53.483Z,5.00
2018-12-21T12:03:21.105Z,5.00
2018-12-21T12:05:48.635Z,5.10
2018-12-21T12:08:16.143Z,6.60
2018-12-21T12:10:43.650Z,5.30
2018-12-21T12:13:11.160Z,5.30
2018-12-21T12:18:06.193Z,5.30
2018-12-21T12:20:33.711Z,5.30
2018-12-21T12:23:01.249Z,5.30
2018-12-21T12:25:28.760Z,5.50
2018-12-21T12:27:56.256Z,5.50
2018-12-21T12:30:23.759Z,5.50
2018-12-21T12:32:51.307Z,6.20
2018-12-21T12:35:18.797Z,5.60
2018-12-21T12:37:46.289Z,5.70
2018-12-21T12:40:13.819Z,5.70
2018-12-21T12:42:41.318Z,5.70
2018-12-21T12:45:08.969Z,5.60
2018-12-21T12:47:36.557Z,5.60
2018-12-21T12:50:04.842Z,5.50
2018-12-21T12:52:32.372Z,5.50
2018-12-21T12:57:29.481Z,5.40
2018-12-21T12:59:56.991Z,5.40
2018-12-21T13:02:24.517Z,5.40
2018-12-21T13:04:52.013Z,5.40
2018-12-21T13:07:19.523Z,5.30
2018-12-21T13:09:47.026Z,5.40
2018-12-21T13:12:14.539Z,5.40
2018-12-21T13:14:42.562Z,5.20
2018-12-21T13:17:10.056Z,5.20
2018-12-21T13:19:38.321Z,5.20
2018-12-21T13:22:06.800Z,5.10
2018-12-21T13:24:34.356Z,5.20
2018-12-21T13:27:01.853Z,5.60
2018-12-21T13:29:29.395Z,5.00
2018-12-21T13:31:57.708Z,5.30
2018-12-21T13:34:25.291Z,5.30
2018-12-21T13:36:52.892Z,5.10
2018-12-21T13:39:20.408Z,5.40
2018-12-21T13:41:47.915Z,5.00
2018-12-21T13:44:15.441Z,5.50
2018-12-21T13:46:42.965Z,5.30
2018-12-21T13:49:11.224Z,5.30
2018-12-21T13:51:38.725Z,5.30
2018-12-21T13:54:06.254Z,5.30
2018-12-21T13:56:33.769Z,4.90
2018-12-21T13:59:01.310Z,5.30
2018-12-21T14:01:28.877Z,5.40
2018-12-21T14:03:56.407Z,5.40
2018-12-21T14:08:52.496Z,5.80
2018-12-21T14:11:20.299Z,5.20
2018-12-21T14:13:47.976Z,5.50
2018-12-21T14:16:15.666Z,5.00
2018-12-21T14:18:43.245Z,4.90
2018-12-21T14:21:10.760Z,5.10
2018-12-21T14:23:38.296Z,5.10
2018-12-21T14:26:05.813Z,5.30
2018-12-21T14:28:33.346Z,7.70
2018-12-21T14:33:28.955Z,4.60
2018-12-21T14:35:58.350Z,5.50
2018-12-21T14:38:25.857Z,4.90
2018-12-21T14:40:53.424Z,4.60
2018-12-21T14:43:20.954Z,5.10
2018-12-21T14:45:48.490Z,4.70
2018-12-21T14:48:16.049Z,5.00
2018-12-21T14:50:43.619Z,4.80
2018-12-21T14:53:11.163Z,5.00
2018-12-21T14:58:06.309Z,5.10
2018-12-21T15:00:33.861Z,5.20
2018-12-21T15:03:01.381Z,5.20
2018-12-21T15:05:28.951Z,5.10
2018-12-21T15:07:58.239Z,5.10
2018-12-21T15:10:25.775Z,4.80
2018-12-21T15:12:53.338Z,5.00
2018-12-21T15:15:20.924Z,5.10
2018-12-21T15:17:48.439Z,5.20
2018-12-21T15:20:15.943Z,5.40
2018-12-21T15:22:45.959Z,5.20
2018-12-21T15:25:14.218Z,5.60
2018-12-21T15:27:42.376Z,5.10
2018-12-21T15:30:09.968Z,5.20
2018-12-21T15:32:37.466Z,5.20
2018-12-21T15:35:05.998Z,5.20
2018-12-21T15:37:33.496Z,5.00
2018-12-21T15:42:28.516Z,6.00
2018-12-21T15:44:56.034Z,5.10
2018-12-21T15:47:24.120Z,5.50
2018-12-21T15:49:52.454Z,5.40
2018-12-21T15:52:19.996Z,5.40
2018-12-21T15:54:47.559Z,5.30
2018-12-21T15:57:15.458Z,5.50
2018-12-21T15:59:43.004Z,5.30
2018-12-21T16:02:11.460Z,5.50
2018-12-21T16:04:38.990Z,5.20
2018-12-21T16:07:08.308Z,5.30
2018-12-21T16:09:35.925Z,5.40
2018-12-21T16:12:04.388Z,5.20
2018-12-21T16:14:34.658Z,4.80
2018-12-21T16:17:01.773Z,5.40
2018-12-21T16:19:29.281Z,5.10
2018-12-21T16:21:56.893Z,5.20
2018-12-21T16:24:24.419Z,5.30
2018-12-21T16:26:51.949Z,5.50
2018-12-21T16:29:20.439Z,5.60
2018-12-21T16:31:48.801Z,5.60
2018-12-21T16:34:17.369Z,5.90
2018-12-21T16:39:12.467Z,5.90
2018-12-21T16:41:40.009Z,6.40
2018-12-21T16:44:07.931Z,6.40
2018-12-21T16:46:35.802Z,6.40
2018-12-21T16:49:03.358Z,6.80
2018-12-21T16:51:31.467Z,6.70
2018-12-21T16:53:58.966Z,6.80
2018-12-21T16:56:26.630Z,7.10
2018-12-21T16:58:54.455Z,7.30
2018-12-21T17:01:22.550Z,7.10
2018-12-21T17:03:51.436Z,7.30
2018-12-21T17:06:18.979Z,7.30
2018-12-21T17:08:46.490Z,7.40
2018-12-21T17:11:15.138Z,7.50
2018-12-21T17:13:42.787Z,7.60
2018-12-21T17:16:10.405Z,7.40
2018-12-21T17:18:39.359Z,7.60
2018-12-21T17:23:34.502Z,7.70
2018-12-21T17:26:02.045Z,7.50
2018-12-21T17:30:57.091Z,7.80
2018-12-21T17:33:24.663Z,7.70
2018-12-21T17:35:52.289Z,7.80
2018-12-21T17:38:19.829Z,7.60
2018-12-21T17:40:47.352Z,7.80
2018-12-21T17:43:15.532Z,7.90
2018-12-21T17:45:43.297Z,8.00
2018-12-21T17:48:10.849Z,7.60
2018-12-21T17:50:38.764Z,8.00
2018-12-21T17:53:06.325Z,7.80
2018-12-21T17:55:33.930Z,7.90
2018-12-21T17:58:01.483Z,8.10
2018-12-21T18:00:29.006Z,7.90
2018-12-21T18:02:56.621Z,8.20
2018-12-21T18:07:52.759Z,8.40
2018-12-21T18:10:20.643Z,8.30
2018-12-21T18:12:48.187Z,8.30
2018-12-21T18:15:15.759Z,8.30
2018-12-21T18:17:43.280Z,8.30
2018-12-21T18:20:13.127Z,8.40
2018-12-21T18:22:41.659Z,8.20
2018-12-21T18:25:11.968Z,8.50
2018-12-21T18:27:39.718Z,8.50
2018-12-21T18:30:13.492Z,8.50
2018-12-21T18:32:42.842Z,8.40
2018-12-21T18:35:11.056Z,8.30
2018-12-21T18:37:42.498Z,8.50
2018-12-21T18:40:11.286Z,8.70
2018-12-21T18:42:38.850Z,8.60
2018-12-21T18:45:08.486Z,8.80
2018-12-21T18:47:37.909Z,8.60
2018-12-21T18:50:08.824Z,8.70
2018-12-21T18:52:36.420Z,8.50
2018-12-21T18:55:07.680Z,8.60
2018-12-21T18:57:35.239Z,8.30
2018-12-21T19:02:31.988Z,8.60
2018-12-21T19:04:59.548Z,8.80
2018-12-21T19:07:27.155Z,8.80
2018-12-21T19:09:55.478Z,9.00
2018-12-21T19:12:23.075Z,8.80
2018-12-21T19:14:50.599Z,8.80
2018-12-21T19:19:51.245Z,9.10
2018-12-21T19:24:48.746Z,9.10
2018-12-21T19:27:16.312Z,9.20
2018-12-21T19:29:44.888Z,9.20
2018-12-21T19:32:12.840Z,9.60
2018-12-21T19:34:41.306Z,9.50
2018-12-21T19:37:09.567Z,9.70
2018-12-21T19:39:37.439Z,9.50
2018-12-21T19:42:05.877Z,9.90
2018-12-21T19:44:33.649Z,10.30
2018-12-21T19:47:02.004Z,10.20
2018-12-21T19:49:29.587Z,10.20
2018-12-21T19:51:57.670Z,10.50
2018-12-21T19:54:25.861Z,10.50
2018-12-21T19:57:04.460Z,10.30
2018-12-21T19:59:27.069Z,10.50
2018-12-21T20:01:54.633Z,10.20
2018-12-21T20:04:25.594Z,10.10
2018-12-21T20:06:54.056Z,10.30
2018-12-21T20:09:22.376Z,10.50
2018-12-21T20:11:50.424Z,10.30
2018-12-21T20:14:19.135Z,10.40
2018-12-21T20:16:47.510Z,10.50
2018-12-21T20:19:17.470Z,10.50
2018-12-21T20:21:46.957Z,10.70
2018-12-21T20:24:15.039Z,10.80
2018-12-21T20:26:42.791Z,10.70
2018-12-21T20:29:10.352Z,10.80
2018-12-21T20:31:39.792Z,10.90
2018-12-21T20:34:08.696Z,11.00
2018-12-21T20:36:37.272Z,11.00
2018-12-21T20:39:08.835Z,10.80
2018-12-21T20:41:36.388Z,10.90
2018-12-21T20:44:05.578Z,10.70
2018-12-21T20:46:34.396Z,11.00
2018-12-21T20:49:03.049Z,11.00
2018-12-21T20:51:30.613Z,10.90
2018-12-21T20:54:01.195Z,10.90
2018-12-21T20:56:30.655Z,10.90
2018-12-21T20:58:59.616Z,11.00
2018-12-21T21:03:56.826Z,10.50
2018-12-21T21:06:25.529Z,11.20
2018-12-21T21:08:54.646Z,10.80
2018-12-21T21:11:25.013Z,10.90
2018-12-21T21:13:53.156Z,11.00
2018-12-21T21:16:22.271Z,10.80
2018-12-21T21:18:50.616Z,10.90
2018-12-21T21:21:18.720Z,10.90
2018-12-21T21:23:46.267Z,11.10
2018-12-21T21:26:15.320Z,11.20
2018-12-21T21:28:43.061Z,11.10
2018-12-21T21:31:11.162Z,11.00
2018-12-21T21:33:38.716Z,11.20
2018-12-21T21:36:06.449Z,11.00
2018-12-21T21:38:34.637Z,10.80
2018-12-21T21:41:02.186Z,11.00
2018-12-21T21:43:30.744Z,11.10
2018-12-21T21:45:59.174Z,11.30
2018-12-21T21:48:29.369Z,11.30
2018-12-21T21:50:56.903Z,11.10
2018-12-21T21:53:25.317Z,11.20
2018-12-21T21:55:52.952Z,11.40
2018-12-21T21:58:20.551Z,11.40
2018-12-21T22:00:48.814Z,11.50
2018-12-21T22:03:17.588Z,11.60
2018-12-21T22:05:46.566Z,11.30
2018-12-21T22:08:14.131Z,11.40
2018-12-21T22:10:43.763Z,11.40
2018-12-21T22:13:11.673Z,11.50
2018-12-21T22:15:39.916Z,11.40
2018-12-21T22:18:07.523Z,11.60
2018-12-21T22:20:35.983Z,11.30
2018-12-21T22:23:03.862Z,11.60
2018-12-21T22:25:31.460Z,11.30
2018-12-21T22:27:58.982Z,11.50
2018-12-21T22:30:27.347Z,11.50
2018-12-21T22:32:56.168Z,11.50
2018-12-21T22:35:23.709Z,11.40
2018-12-21T22:37:51.958Z,11.10
2018-12-21T22:40:19.540Z,11.80
2018-12-21T22:42:47.067Z,11.80
2018-12-21T22:45:14.585Z,11.40
2018-12-21T22:47:42.086Z,11.50
2018-12-21T22:52:37.242Z,11.40
2018-12-21T22:55:05.692Z,11.10
2018-12-21T22:57:33.230Z,11.40
2018-12-21T23:00:00.764Z,11.50
2018-12-21T23:02:28.657Z,11.40
2018-12-21T23:04:56.197Z,11.50
2018-12-21T23:07:23.709Z,11.60
2018-12-21T23:09:51.559Z,11.60
2018-12-21T23:12:19.072Z,11.50
2018-12-21T23:14:46.574Z,11.50
2018-12-21T23:17:14.082Z,11.80
2018-12-21T23:19:41.579Z,12.10
2018-12-21T23:22:09.938Z,11.70
2018-12-21T23:24:37.448Z,11.70
2018-12-21T23:27:04.966Z,11.60
2018-12-21T23:29:32.476Z,11.60
2018-12-21T23:32:00.376Z,11.70
2018-12-21T23:34:27.906Z,11.60
2018-12-21T23:36:55.532Z,11.60
2018-12-21T23:39:23.040Z,11.70
2018-12-21T23:41:50.536Z,11.30
2018-12-21T23:44:18.048Z,11.70
2018-12-21T23:46:45.540Z,11.70
2018-12-21T23:49:13.048Z,11.70
2018-12-21T23:51:40.550Z,11.70
2018-12-21T23:54:08.161Z,11.60
2018-12-21T23:56:35.677Z,11.50
2018-12-21T23:59:03.247Z,11.60
